Time;durP1;ratioP1;P1;durP2;ratioP2;P2;SDS_P1;SDS_P2;PMS_P1;PMS_P2;Temp;Humidity;BMP_temperature;BMP_pressure;BME280_temperature;BME280_humidity;BME280_pressure;Samples;Min_cycle;Max_cycle;Signal;HPM_P1;HPM_P2
2022/10/11 00:02:19;;;;;;;7.47;2.10;;;19.50;58.90;;;;;;6257184;22;20019;-70
2022/10/11 00:04:45;;;;;;;5.63;1.90;;;19.40;58.80;;;;;;6257518;22;20015;-70
2022/10/11 00:07:10;;;;;;;6.28;2.17;;;19.40;58.80;;;;;;6256860;22;20099;-70
2022/10/11 00:09:36;;;;;;;3.00;1.67;;;19.40;58.70;;;;;;6257656;22;20022;-71
2022/10/11 00:12:02;;;;;;;4.22;1.92;;;19.40;58.70;;;;;;6257639;22;20027;-71
2022/10/11 00:14:28;;;;;;;4.90;2.17;;;19.40;58.70;;;;;;6258794;22;20023;-70
2022/10/11 00:16:55;;;;;;;4.80;1.77;;;19.40;58.70;;;;;;6257087;22;20345;-70
2022/10/11 00:19:20;;;;;;;4.28;1.70;;;19.40;58.60;;;;;;6259993;22;20016;-71
2022/10/11 00:21:46;;;;;;;3.80;1.85;;;19.40;58.60;;;;;;6254548;22;20042;-71
2022/10/11 00:24:14;;;;;;;3.25;1.65;;;19.40;58.70;;;;;;6260906;22;20288;-70
2022/10/11 00:26:40;;;;;;;4.97;1.85;;;19.40;58.60;;;;;;6256819;22;20050;-70
2022/10/11 00:29:06;;;;;;;6.50;1.90;;;19.40;58.50;;;;;;6257050;22;20428;-71
2022/10/11 00:31:32;;;;;;;5.20;1.88;;;19.40;58.50;;;;;;6230859;22;20019;-71
2022/10/11 00:33:57;;;;;;;6.13;2.00;;;19.40;58.50;;;;;;6257651;22;20529;-70
2022/10/11 00:36:23;;;;;;;4.95;1.80;;;19.40;58.50;;;;;;6257056;22;20537;-73
2022/10/11 00:38:48;;;;;;;5.93;1.80;;;19.40;58.50;;;;;;6255663;22;20125;-73
2022/10/11 00:41:15;;;;;;;5.18;1.92;;;19.40;58.40;;;;;;6257843;22;20140;-72
2022/10/11 00:43:41;;;;;;;6.15;1.67;;;19.40;58.40;;;;;;6230415;22;20023;-72
2022/10/11 00:46:28;;;;;;;5.57;1.88;;;19.40;58.40;;;;;;6259123;22;20081;-71
2022/10/11 00:49:06;;;;;;;5.05;1.67;;;19.40;58.40;;;;;;6257517;22;20530;-72
2022/10/11 00:51:38;;;;;;;4.13;1.60;;;19.40;58.40;;;;;;6257411;22;20066;-71
2022/10/11 00:54:05;;;;;;;4.40;1.70;;;19.40;58.40;;;;;;6256365;22;20030;-72
2022/10/11 00:56:42;;;;;;;2.83;1.50;;;19.40;58.30;;;;;;6258124;22;20016;-71
2022/10/11 00:59:13;;;;;;;4.17;1.67;;;19.40;58.30;;;;;;6260901;22;20020;-70
2022/10/11 01:01:38;;;;;;;9.48;2.20;;;19.40;58.30;;;;;;6255857;22;20249;-70
2022/10/11 01:04:04;;;;;;;4.82;1.60;;;19.40;58.20;;;;;;6257362;22;20023;-70
2022/10/11 01:06:31;;;;;;;5.88;1.60;;;19.40;58.20;;;;;;6259021;22;20134;-70
2022/10/11 01:08:56;;;;;;;5.53;2.00;;;19.40;58.20;;;;;;6256338;22;20081;-71
2022/10/11 01:11:25;;;;;;;6.15;1.70;;;19.40;58.20;;;;;;6258494;22;20111;-71
2022/10/11 01:14:05;;;;;;;5.20;1.67;;;19.40;58.10;;;;;;6255093;22;20038;-72
2022/10/11 01:16:41;;;;;;;5.82;1.63;;;19.40;58.10;;;;;;6256392;22;20634;-71
2022/10/11 01:19:27;;;;;;;4.00;1.40;;;19.40;58.10;;;;;;6257555;22;20019;-72
2022/10/11 01:22:14;;;;;;;5.00;1.52;;;19.40;58.00;;;;;;6254499;22;20113;-71
2022/10/11 01:24:43;;;;;;;3.45;1.40;;;19.40;58.00;;;;;;6258876;22;20038;-72
2022/10/11 01:27:17;;;;;;;4.68;1.83;;;19.40;58.00;;;;;;6255861;22;20490;-70
2022/10/11 01:30:17;;;;;;;4.13;1.70;;;19.40;58.00;;;;;;6256011;22;20078;-70
2022/10/11 01:33:01;;;;;;;4.82;1.70;;;19.40;57.90;;;;;;6255165;22;20031;-71
2022/10/11 01:35:38;;;;;;;4.20;1.33;;;19.40;57.90;;;;;;6253861;22;20428;-70
2022/10/11 01:38:22;;;;;;;4.90;1.55;;;19.30;57.80;;;;;;6256096;22;20020;-71
2022/10/11 01:40:52;;;;;;;3.50;1.50;;;19.40;57.80;;;;;;6254250;22;20045;-71
2022/10/11 01:43:19;;;;;;;4.82;1.50;;;19.30;57.80;;;;;;6255525;22;20047;-71
2022/10/11 01:45:49;;;;;;;5.10;1.63;;;19.30;57.80;;;;;;6256652;22;20051;-72
2022/10/11 01:48:15;;;;;;;3.20;1.40;;;19.30;57.70;;;;;;6253380;22;20027;-71
2022/10/11 01:50:48;;;;;;;4.82;1.42;;;19.30;57.80;;;;;;6256531;22;20383;-72
2022/10/11 01:53:26;;;;;;;2.97;1.50;;;19.30;57.70;;;;;;6257934;22;20158;-71
2022/10/11 01:56:20;;;;;;;5.07;1.70;;;19.30;57.80;;;;;;6253992;22;20104;-71
2022/10/11 01:59:03;;;;;;;3.13;1.45;;;19.30;57.60;;;;;;6179257;22;20023;-70
2022/10/11 02:01:44;;;;;;;7.50;1.48;;;19.30;57.60;;;;;;6255840;22;20072;-71
2022/10/11 02:04:21;;;;;;;4.53;1.58;;;19.30;57.60;;;;;;6258668;22;20016;-70
2022/10/11 02:07:19;;;;;;;2.92;1.20;;;19.30;57.60;;;;;;6258248;22;20008;-72
2022/10/11 02:10:11;;;;;;;2.70;1.33;;;19.30;57.50;;;;;;6229386;22;20081;-70
2022/10/11 02:12:42;;;;;;;5.20;1.60;;;19.30;57.50;;;;;;6257057;22;20090;-70
2022/10/11 02:15:11;;;;;;;4.85;1.35;;;19.30;57.60;;;;;;6258120;22;20042;-72
2022/10/11 02:17:47;;;;;;;4.22;1.25;;;19.30;57.50;;;;;;6255775;22;20016;-70
2022/10/11 02:20:18;;;;;;;2.97;1.10;;;19.30;57.50;;;;;;6258979;22;20050;-72
2022/10/11 02:22:47;;;;;;;4.80;1.40;;;19.30;57.50;;;;;;6255332;22;20015;-71
2022/10/11 02:25:18;;;;;;;3.45;1.02;;;19.30;57.50;;;;;;6262528;22;20042;-70
2022/10/11 02:27:47;;;;;;;7.65;1.50;;;19.30;57.50;;;;;;6257813;22;20093;-70
2022/10/11 02:30:14;;;;;;;4.68;1.20;;;19.30;57.40;;;;;;6257516;22;20026;-71
2022/10/11 02:32:42;;;;;;;3.13;1.30;;;19.30;57.40;;;;;;6260005;22;20026;-71
2022/10/11 02:35:09;;;;;;;5.72;1.55;;;19.30;57.40;;;;;;6258684;22;20316;-71
2022/10/11 02:38:00;;;;;;;5.97;1.10;;;19.30;57.40;;;;;;6257642;22;20426;-70
2022/10/11 02:40:36;;;;;;;3.88;1.00;;;19.30;57.30;;;;;;6259670;22;20023;-70
2022/10/11 02:43:04;;;;;;;2.28;0.90;;;19.30;57.40;;;;;;6260772;22;20069;-70
2022/10/11 02:45:35;;;;;;;3.80;1.27;;;19.30;57.40;;;;;;6259808;22;20012;-70
2022/10/11 02:48:03;;;;;;;2.97;1.10;;;19.30;57.30;;;;;;6257616;22;20114;-71
2022/10/11 02:50:30;;;;;;;4.65;1.52;;;19.30;57.40;;;;;;6258040;22;20110;-71
2022/10/11 02:52:56;;;;;;;5.78;1.67;;;19.30;57.30;;;;;;6258888;22;20549;-70
2022/10/11 02:55:21;;;;;;;2.97;1.15;;;19.30;57.30;;;;;;6258752;22;20027;-70
2022/10/11 02:57:47;;;;;;;3.42;1.30;;;19.20;57.30;;;;;;6256843;22;20016;-71
2022/10/11 03:00:13;;;;;;;1.83;0.80;;;19.30;57.30;;;;;;6259976;22;20024;-71
2022/10/11 03:02:39;;;;;;;4.60;1.08;;;19.20;57.20;;;;;;6255538;22;20020;-71
2022/10/11 03:05:04;;;;;;;3.22;1.20;;;19.20;57.20;;;;;;6232160;22;20026;-70
2022/10/11 03:07:30;;;;;;;3.63;1.27;;;19.20;57.20;;;;;;6257629;22;20088;-71
2022/10/11 03:09:56;;;;;;;3.05;1.30;;;19.20;57.20;;;;;;6255393;22;20388;-70
2022/10/11 03:12:21;;;;;;;4.50;1.27;;;19.30;57.30;;;;;;6261956;22;20027;-70
2022/10/11 03:14:47;;;;;;;2.85;0.90;;;19.20;57.10;;;;;;6258203;22;20018;-70
2022/10/11 03:17:13;;;;;;;5.18;1.27;;;19.20;57.10;;;;;;6258268;22;20069;-70
2022/10/11 03:19:38;;;;;;;3.95;1.30;;;19.20;57.10;;;;;;6259536;22;20038;-71
2022/10/11 03:22:04;;;;;;;4.25;1.55;;;19.20;57.10;;;;;;6255733;22;20026;-70
2022/10/11 03:24:29;;;;;;;4.10;1.20;;;19.20;57.10;;;;;;6258139;22;20016;-71
2022/10/11 03:26:55;;;;;;;2.70;0.95;;;19.20;57.10;;;;;;6258368;22;20077;-71
2022/10/11 03:29:21;;;;;;;2.75;1.15;;;19.20;57.20;;;;;;6257463;22;20019;-71
2022/10/11 03:31:46;;;;;;;2.58;1.00;;;19.20;57.10;;;;;;6257277;22;20019;-70
2022/10/11 03:34:12;;;;;;;4.72;1.13;;;19.20;57.00;;;;;;6260601;22;20016;-70
2022/10/11 03:36:38;;;;;;;3.53;0.95;;;19.20;57.00;;;;;;6256615;22;20017;-70
2022/10/11 03:39:04;;;;;;;5.15;1.23;;;19.20;57.10;;;;;;6260362;22;20042;-71
2022/10/11 03:41:30;;;;;;;3.67;1.13;;;19.20;57.00;;;;;;6258354;22;20027;-70
2022/10/11 03:43:55;;;;;;;3.20;0.90;;;19.20;57.00;;;;;;6257221;22;20020;-70
2022/10/11 03:46:21;;;;;;;4.82;1.10;;;19.20;57.00;;;;;;6258926;22;20019;-70
2022/10/11 03:48:47;;;;;;;3.17;0.88;;;19.20;57.00;;;;;;6255381;22;20439;-70
2022/10/11 03:51:13;;;;;;;3.25;1.00;;;19.20;56.90;;;;;;6260127;22;20098;-70
2022/10/11 03:53:39;;;;;;;3.25;1.10;;;19.20;57.00;;;;;;6257107;22;20386;-70
2022/10/11 03:56:05;;;;;;;4.25;1.25;;;19.20;56.90;;;;;;6258366;22;20424;-69
2022/10/11 03:58:30;;;;;;;2.90;1.05;;;19.20;57.00;;;;;;6259851;22;20321;-69
2022/10/11 04:00:56;;;;;;;3.15;1.08;;;19.20;56.90;;;;;;6254747;22;20115;-70
2022/10/11 04:03:22;;;;;;;3.13;1.00;;;19.20;56.90;;;;;;6260423;22;20023;-70
2022/10/11 04:05:48;;;;;;;2.35;0.90;;;19.20;57.00;;;;;;6256854;22;20022;-71
2022/10/11 04:08:13;;;;;;;3.15;1.00;;;19.10;56.80;;;;;;6256807;22;20020;-71
2022/10/11 04:10:42;;;;;;;;;;;19.20;56.90;;;;;;6257025;22;20027;-71
2022/10/11 04:13:09;;;;;;;2.25;0.80;;;19.20;56.90;;;;;;6258869;22;19919;-69
2022/10/11 04:15:36;;;;;;;2.28;0.88;;;19.20;56.90;;;;;;6256744;22;20031;-70
2022/10/11 04:18:02;;;;;;;3.20;1.00;;;19.10;56.80;;;;;;6259721;22;20022;-71
2022/10/11 04:20:27;;;;;;;3.92;1.13;;;19.20;56.90;;;;;;6259918;22;20102;-69
2022/10/11 04:22:53;;;;;;;4.30;0.90;;;19.10;56.80;;;;;;6254024;22;20042;-70
2022/10/11 04:25:18;;;;;;;3.88;0.95;;;19.10;56.80;;;;;;6259943;22;20027;-70
2022/10/11 04:27:44;;;;;;;3.03;0.90;;;19.10;56.80;;;;;;6254805;22;20134;-71
2022/10/11 04:30:10;;;;;;;2.58;1.08;;;19.10;56.80;;;;;;6259521;22;20732;-71
2022/10/11 04:32:36;;;;;;;2.53;0.98;;;19.20;56.80;;;;;;6256343;22;20435;-70
2022/10/11 04:35:01;;;;;;;3.45;0.98;;;19.10;56.70;;;;;;6258217;22;20081;-71
2022/10/11 04:37:27;;;;;;;3.58;1.00;;;19.20;56.80;;;;;;6258087;22;20026;-70
2022/10/11 04:39:52;;;;;;;2.88;0.90;;;19.20;56.80;;;;;;6258263;22;20023;-70
2022/10/11 04:42:19;;;;;;;2.53;0.90;;;19.10;56.70;;;;;;6231427;22;20031;-70
2022/10/11 04:44:44;;;;;;;1.45;0.77;;;19.10;56.70;;;;;;6255940;22;20404;-71
2022/10/11 04:47:10;;;;;;;3.72;1.08;;;19.10;56.70;;;;;;6257827;22;20379;-71
2022/10/11 04:49:38;;;;;;;2.72;0.70;;;19.10;56.70;;;;;;6256530;22;20050;-71
2022/10/11 04:52:03;;;;;;;3.80;0.93;;;19.10;56.70;;;;;;6230952;22;20019;-72
2022/10/11 04:54:29;;;;;;;2.60;0.70;;;19.10;56.70;;;;;;6256714;22;20011;-71
2022/10/11 04:56:54;;;;;;;2.50;0.77;;;19.10;56.70;;;;;;6257016;22;20102;-72
2022/10/11 04:59:20;;;;;;;3.25;1.15;;;19.10;56.70;;;;;;6258553;22;20018;-71
2022/10/11 05:01:45;;;;;;;3.65;0.90;;;19.10;56.70;;;;;;6228095;22;20098;-70
2022/10/11 05:04:11;;;;;;;2.28;0.88;;;19.10;56.70;;;;;;6257733;22;20011;-69
2022/10/11 05:06:37;;;;;;;4.25;0.73;;;19.10;56.70;;;;;;6258444;22;20015;-70
2022/10/11 05:09:02;;;;;;;4.05;1.10;;;19.10;56.60;;;;;;6257008;22;20020;-70
2022/10/11 05:11:29;;;;;;;3.22;0.80;;;19.10;56.70;;;;;;6255349;22;20019;-72
2022/10/11 05:13:56;;;;;;;2.33;0.77;;;19.10;56.60;;;;;;6259253;22;20075;-70
2022/10/11 05:16:22;;;;;;;4.78;0.90;;;19.10;56.60;;;;;;6255512;22;20110;-71
2022/10/11 05:18:51;;;;;;;3.97;0.90;;;19.10;56.60;;;;;;6257884;22;20027;-72
2022/10/11 05:21:25;;;;;;;2.42;0.80;;;19.10;56.60;;;;;;6257582;22;20065;-70
2022/10/11 05:23:52;;;;;;;2.65;0.90;;;19.10;56.60;;;;;;6253850;22;20019;-71
2022/10/11 05:26:19;;;;;;;3.25;0.77;;;19.10;56.60;;;;;;6258387;22;20077;-70
2022/10/11 05:28:45;;;;;;;2.80;0.85;;;19.10;56.60;;;;;;6254607;22;20337;-72
2022/10/11 05:31:11;;;;;;;2.20;0.80;;;19.10;56.50;;;;;;6255850;22;20328;-72
2022/10/11 05:33:38;;;;;;;3.08;1.17;;;19.10;56.50;;;;;;6256540;22;20101;-72
2022/10/11 05:36:06;;;;;;;3.38;1.00;;;19.10;56.50;;;;;;6229941;22;20051;-69
2022/10/11 05:38:36;;;;;;;2.25;0.68;;;19.10;56.50;;;;;;6257144;22;20091;-71
2022/10/11 05:41:04;;;;;;;3.63;1.02;;;19.10;56.50;;;;;;6254813;22;20016;-69
2022/10/11 05:43:30;;;;;;;4.43;0.90;;;19.10;56.60;;;;;;6258332;22;20008;-72
2022/10/11 05:45:56;;;;;;;6.05;0.88;;;19.10;56.60;;;;;;6257902;22;20101;-69
2022/10/11 05:48:23;;;;;;;4.72;0.82;;;19.10;56.70;;;;;;6253563;22;20066;-73
2022/10/11 05:50:49;;;;;;;7.18;0.93;;;19.10;56.90;;;;;;6253884;22;20437;-71
2022/10/11 05:53:17;;;;;;;3.20;0.95;;;19.10;57.20;;;;;;6231784;22;20090;-73
2022/10/11 05:55:43;;;;;;;3.08;0.90;;;19.10;57.30;;;;;;6257444;22;20051;-71
2022/10/11 05:58:13;;;;;;;6.45;1.05;;;19.10;57.40;;;;;;6256114;22;20028;-75
2022/10/11 06:00:39;;;;;;;4.80;0.95;;;19.00;57.50;;;;;;6257566;22;20019;-72
2022/10/11 06:03:06;;;;;;;2.60;0.98;;;19.00;57.60;;;;;;6254695;22;20043;-72
2022/10/11 06:05:33;;;;;;;9.00;1.38;;;19.00;57.70;;;;;;6257548;22;20016;-72
2022/10/11 06:07:59;;;;;;;4.43;0.90;;;19.00;57.80;;;;;;6254653;22;20024;-72
2022/10/11 06:10:25;;;;;;;5.85;1.27;;;19.00;57.90;;;;;;6257787;22;20090;-72
2022/10/11 06:12:50;;;;;;;6.90;0.98;;;19.00;57.90;;;;;;6231233;22;20023;-69
2022/10/11 06:15:16;;;;;;;5.03;1.02;;;19.00;57.90;;;;;;6256538;22;20594;-70
2022/10/11 06:17:42;;;;;;;4.40;1.17;;;19.00;58.00;;;;;;6257142;22;20015;-70
2022/10/11 06:20:08;;;;;;;5.90;1.08;;;19.00;58.00;;;;;;6256421;22;20029;-70
2022/10/11 06:22:33;;;;;;;5.53;1.00;;;19.00;58.00;;;;;;6255777;22;20030;-72
2022/10/11 06:24:59;;;;;;;5.32;1.13;;;19.10;58.10;;;;;;6256694;22;20016;-73
2022/10/11 06:27:25;;;;;;;4.70;0.90;;;19.10;58.10;;;;;;6258522;22;20111;-70
2022/10/11 06:29:50;;;;;;;5.60;0.93;;;19.10;58.00;;;;;;6254143;22;20043;-71
2022/10/11 06:32:16;;;;;;;5.40;0.80;;;19.10;58.00;;;;;;6257266;22;20862;-73
2022/10/11 06:34:42;;;;;;;4.10;0.85;;;19.10;58.00;;;;;;6229880;22;20038;-71
2022/10/11 06:37:08;;;;;;;8.02;1.10;;;19.10;58.00;;;;;;6256999;22;20019;-72
2022/10/11 06:39:33;;;;;;;6.32;1.13;;;19.10;58.00;;;;;;6259478;22;20339;-69
2022/10/11 06:41:59;;;;;;;5.43;0.80;;;19.10;58.10;;;;;;6254848;22;20019;-71
2022/10/11 06:44:25;;;;;;;4.78;1.00;;;19.10;58.00;;;;;;6257620;22;20299;-73
2022/10/11 06:46:51;;;;;;;3.42;0.70;;;19.10;58.00;;;;;;6253324;22;20123;-72
2022/10/11 06:49:17;;;;;;;4.57;1.25;;;19.20;58.10;;;;;;6257734;22;20024;-70
2022/10/11 06:51:44;;;;;;;3.47;0.80;;;19.10;58.00;;;;;;6254349;22;20081;-71
2022/10/11 06:54:09;;;;;;;3.97;0.90;;;19.20;58.00;;;;;;6255002;22;20012;-69
2022/10/11 06:56:36;;;;;;;3.97;0.93;;;19.20;58.00;;;;;;6256549;22;20104;-70
2022/10/11 06:59:02;;;;;;;3.58;1.00;;;19.20;58.00;;;;;;6255361;22;20432;-71
2022/10/11 07:01:28;;;;;;;3.13;0.75;;;19.20;57.90;;;;;;6254636;22;20038;-70
2022/10/11 07:03:56;;;;;;;3.65;0.95;;;19.20;57.90;;;;;;6253388;22;20095;-71
2022/10/11 07:06:26;;;;;;;5.80;1.00;;;19.20;57.80;;;;;;6258853;22;20020;-71
2022/10/11 07:08:54;;;;;;;3.88;1.25;;;19.30;58.00;;;;;;6254776;22;20258;-72
2022/10/11 07:11:22;;;;;;;5.40;1.00;;;19.40;57.90;;;;;;6255221;22;20023;-70
2022/10/11 07:13:50;;;;;;;3.28;1.02;;;19.30;57.90;;;;;;6256518;22;20019;-72
2022/10/11 07:16:16;;;;;;;4.25;0.93;;;19.40;58.00;;;;;;6255177;22;20015;-71
2022/10/11 07:18:41;;;;;;;3.05;0.82;;;19.50;58.00;;;;;;6256595;22;20049;-72
2022/10/11 07:21:10;;;;;;;3.63;1.00;;;19.50;57.90;;;;;;6256047;22;20035;-75
2022/10/11 07:23:37;;;;;;;4.43;1.10;;;19.50;57.90;;;;;;6254993;22;20320;-69
2022/10/11 07:26:03;;;;;;;3.53;0.98;;;19.60;57.80;;;;;;6259626;22;20051;-71
2022/10/11 07:28:29;;;;;;;5.65;0.98;;;19.60;57.80;;;;;;6255079;22;20022;-74
2022/10/11 07:30:57;;;;;;;8.45;0.93;;;19.70;57.90;;;;;;6255290;22;20064;-72
2022/10/11 07:33:23;;;;;;;6.43;1.15;;;19.70;57.80;;;;;;6259033;22;20111;-72
2022/10/11 07:35:49;;;;;;;7.18;0.93;;;19.80;57.80;;;;;;6254953;22;20028;-72
2022/10/11 07:38:16;;;;;;;4.53;0.95;;;19.80;57.70;;;;;;6255926;22;20039;-70
2022/10/11 07:40:44;;;;;;;5.25;0.80;;;19.90;57.80;;;;;;6229329;22;20830;-70
2022/10/11 07:43:11;;;;;;;3.63;0.98;;;19.90;57.70;;;;;;6255506;22;20458;-72
2022/10/11 07:45:40;;;;;;;3.60;0.80;;;19.90;57.80;;;;;;6257123;22;20106;-71
2022/10/11 07:48:06;;;;;;;6.63;0.90;;;19.90;57.80;;;;;;6230745;22;20019;-70
2022/10/11 07:50:33;;;;;;;4.35;0.80;;;19.90;57.80;;;;;;6255690;22;20065;-70
2022/10/11 07:52:59;;;;;;;2.22;0.73;;;19.90;57.90;;;;;;6257271;22;20030;-71
2022/10/11 07:55:26;;;;;;;3.85;1.08;;;20.00;57.90;;;;;;6228941;22;20016;-71
2022/10/11 07:57:53;;;;;;;5.18;0.98;;;20.00;57.90;;;;;;6255346;22;20118;-72
2022/10/11 08:00:19;;;;;;;2.95;0.80;;;20.00;58.00;;;;;;6255172;22;20019;-71
2022/10/11 08:02:45;;;;;;;5.18;1.00;;;20.00;58.00;;;;;;6254716;22;20446;-70
2022/10/11 08:05:10;;;;;;;4.47;0.80;;;20.00;58.00;;;;;;6253410;22;20043;-71
2022/10/11 08:07:37;;;;;;;5.15;0.85;;;20.10;58.10;;;;;;6254226;22;20023;-69
2022/10/11 08:10:04;;;;;;;3.03;0.90;;;20.10;58.00;;;;;;6256109;22;20023;-79
2022/10/11 08:12:30;;;;;;;3.27;0.80;;;20.10;58.00;;;;;;6257457;22;20020;-71
2022/10/11 08:14:56;;;;;;;5.15;1.20;;;20.10;58.00;;;;;;6259030;22;20249;-69
2022/10/11 08:17:21;;;;;;;5.03;0.95;;;20.20;58.00;;;;;;6256579;22;20356;-70
2022/10/11 08:19:47;;;;;;;3.60;0.90;;;20.20;58.10;;;;;;6231618;22;20030;-69
2022/10/11 08:22:13;;;;;;;3.15;0.70;;;20.20;58.10;;;;;;6255126;22;20020;-70
2022/10/11 08:24:38;;;;;;;4.97;1.13;;;20.20;58.00;;;;;;6253950;22;20020;-71
2022/10/11 08:27:04;;;;;;;3.20;0.80;;;20.20;58.00;;;;;;6256352;22;20024;-70
2022/10/11 08:29:29;;;;;;;3.20;1.00;;;20.30;58.00;;;;;;6255759;22;20016;-71
2022/10/11 08:31:56;;;;;;;3.25;1.10;;;20.30;57.90;;;;;;6255223;22;20431;-69
2022/10/11 08:34:22;;;;;;;2.85;0.70;;;20.30;57.90;;;;;;6256332;22;20075;-69
2022/10/11 08:36:48;;;;;;;3.08;0.95;;;20.40;57.80;;;;;;6255878;22;20039;-73
2022/10/11 08:39:13;;;;;;;3.90;0.77;;;20.40;57.80;;;;;;6256548;22;20066;-73
2022/10/11 08:41:54;;;;;;;4.57;0.93;;;20.40;57.70;;;;;;6254047;22;20020;-70
2022/10/11 08:44:52;;;;;;;8.32;0.90;;;20.40;57.60;;;;;;6255278;22;20415;-73
2022/10/11 08:47:38;;;;;;;4.53;0.95;;;20.40;57.50;;;;;;6256312;22;20082;-71
2022/10/11 08:50:13;;;;;;;5.63;1.00;;;20.50;57.50;;;;;;6255666;22;20023;-72
2022/10/11 08:52:47;;;;;;;4.78;1.05;;;20.50;57.50;;;;;;6256808;22;20625;-73
2022/10/11 08:55:27;;;;;;;8.45;1.10;;;20.50;57.40;;;;;;6228348;22;20510;-70
2022/10/11 08:57:55;;;;;;;4.82;0.85;;;20.50;57.30;;;;;;6257473;22;20012;-71
2022/10/11 09:00:22;;;;;;;;;;;20.60;57.40;;;;;;6257042;22;20026;-72
2022/10/11 09:03:26;;;;;;;4.90;1.00;;;20.60;57.40;;;;;;6256947;22;19926;-72
2022/10/11 09:06:12;;;;;;;9.13;1.10;;;20.60;57.40;;;;;;6190227;22;20019;-70
2022/10/11 09:09:21;;;;;;;4.75;1.00;;;20.70;57.40;;;;;;6250010;22;20066;-70
2022/10/11 09:11:56;;;;;;;4.57;1.00;;;20.70;57.30;;;;;;6159105;22;20308;-72
2022/10/11 09:14:49;;;;;;;3.13;0.93;;;20.70;57.30;;;;;;6260426;22;20439;-73
2022/10/11 09:17:29;;;;;;;5.75;0.95;;;20.70;57.20;;;;;;6251459;22;20205;-70
2022/10/11 09:20:11;;;;;;;6.57;1.20;;;20.70;57.20;;;;;;6255803;22;20438;-70
2022/10/11 09:22:57;;;;;;;4.05;0.80;;;20.70;57.20;;;;;;6256649;22;20370;-71
2022/10/11 09:25:32;;;;;;;10.88;1.25;;;20.70;57.00;;;;;;6230144;22;20019;-73
2022/10/11 09:28:10;;;;;;;8.07;0.98;;;20.70;57.00;;;;;;6255115;22;20024;-73
2022/10/11 09:30:44;;;;;;;6.90;1.55;;;20.70;57.00;;;;;;6252686;22;20019;-71
2022/10/11 09:33:38;;;;;;;6.95;1.17;;;20.70;57.00;;;;;;6231369;22;20085;-72
2022/10/11 09:36:16;;;;;;;6.60;1.02;;;20.70;56.80;;;;;;6256136;22;20065;-72
2022/10/11 09:38:49;;;;;;;11.68;1.52;;;20.60;56.70;;;;;;6256693;22;20050;-72
2022/10/11 09:41:35;;;;;;;7.32;1.30;;;20.70;56.70;;;;;;6258832;22;20123;-70
2022/10/11 09:44:01;;;;;;;6.38;1.20;;;20.70;56.50;;;;;;6255661;22;20773;-73
2022/10/11 09:46:38;;;;;;;10.88;1.38;;;20.60;56.50;;;;;;6257514;22;20115;-73
2022/10/11 09:49:10;;;;;;;9.07;1.50;;;20.60;56.30;;;;;;6257484;22;20074;-72
2022/10/11 09:51:36;;;;;;;6.75;1.27;;;20.60;56.30;;;;;;6255769;22;20038;-72
2022/10/11 09:54:09;;;;;;;5.20;1.30;;;20.60;56.10;;;;;;6259237;22;20019;-71
2022/10/11 09:56:41;;;;;;;4.38;1.40;;;20.60;56.00;;;;;;6257613;22;20031;-72
2022/10/11 09:59:27;;;;;;;6.63;1.40;;;20.60;55.80;;;;;;6258551;22;20023;-72
2022/10/11 10:02:11;;;;;;;7.82;1.52;;;20.60;55.60;;;;;;6257439;22;20019;-71
2022/10/11 10:04:53;;;;;;;6.90;1.50;;;20.60;55.60;;;;;;6255257;22;20016;-71
2022/10/11 10:07:20;;;;;;;12.05;1.85;;;20.60;55.50;;;;;;6256069;22;20169;-73
2022/10/11 10:09:46;;;;;;;10.70;1.63;;;20.60;55.70;;;;;;6256275;22;20020;-72
2022/10/11 10:12:14;;;;;;;8.75;1.45;;;20.50;55.30;;;;;;6256700;22;20034;-73
2022/10/11 10:14:40;;;;;;;14.50;1.83;;;20.50;55.20;;;;;;6256064;22;20015;-72
2022/10/11 10:17:15;;;;;;;14.18;1.95;;;20.50;55.30;;;;;;6256594;22;20086;-76
2022/10/11 10:19:52;;;;;;;7.80;1.52;;;20.50;55.30;;;;;;6260204;22;20551;-75
2022/10/11 10:22:26;;;;;;;10.18;1.70;;;20.50;55.30;;;;;;6254760;22;20023;-76
2022/10/11 10:24:54;;;;;;;6.65;1.40;;;20.50;55.40;;;;;;6256428;22;20022;-72
2022/10/11 10:27:25;;;;;;;6.18;1.30;;;20.60;55.50;;;;;;6229921;22;20349;-72
2022/10/11 10:30:06;;;;;;;6.97;1.75;;;20.60;55.50;;;;;;6255457;22;20111;-71
2022/10/11 10:33:04;;;;;;;10.85;1.67;;;20.60;55.40;;;;;;6231510;22;20016;-73
2022/10/11 10:35:36;;;;;;;;;;;20.60;55.40;;;;;;6224444;22;20016;-74
2022/10/11 10:38:11;;;;;;;8.98;1.70;;;20.60;55.60;;;;;;6229212;22;19919;-73
2022/10/11 10:40:42;;;;;;;5.68;1.38;;;20.60;55.50;;;;;;6260143;22;20027;-70
2022/10/11 10:43:17;;;;;;;6.70;1.77;;;20.60;55.50;;;;;;6258681;22;20015;-71
2022/10/11 10:46:08;;;;;;;4.93;1.40;;;20.60;55.50;;;;;;6260313;22;20016;-70
2022/10/11 10:48:53;;;;;;;5.15;1.38;;;20.60;55.40;;;;;;6257602;22;20023;-70
2022/10/11 10:51:37;;;;;;;10.88;1.92;;;20.60;55.40;;;;;;6259850;22;20097;-72
2022/10/11 10:54:16;;;;;;;6.72;1.40;;;20.60;55.50;;;;;;6257947;22;20016;-71
2022/10/11 10:56:47;;;;;;;;;;;20.60;55.40;;;;;;6256176;22;20428;-72
2022/10/11 10:59:33;;;;;;;6.68;1.73;;;20.70;55.40;;;;;;6260850;22;19977;-76
2022/10/11 11:02:40;;;;;;;6.15;1.48;;;20.60;55.30;;;;;;6237394;22;20051;-77
2022/10/11 11:05:34;;;;;;;6.93;1.40;;;20.60;55.20;;;;;;6164615;23;20024;-77
2022/10/11 11:08:24;;;;;;;8.05;1.70;;;20.60;55.20;;;;;;6140038;23;20054;-77
2022/10/11 11:11:27;;;;;;;11.43;1.23;;;20.60;55.30;;;;;;6237313;22;20024;-77
2022/10/11 11:14:16;;;;;;;6.38;1.45;;;20.60;55.20;;;;;;6258268;22;20081;-76
2022/10/11 11:16:54;;;;;;;6.75;1.70;;;20.50;55.20;;;;;;6232503;22;20015;-76
2022/10/11 11:19:34;;;;;;;6.35;1.25;;;20.60;55.30;;;;;;6258103;22;20047;-78
2022/10/11 11:22:47;;;;;;;8.13;1.58;;;20.60;55.30;;;;;;6256785;22;20019;-76
2022/10/11 11:25:26;;;;;;;4.32;1.20;;;20.60;55.20;;;;;;6142283;23;20021;-75
2022/10/11 11:28:24;;;;;;;4.20;1.30;;;20.50;55.10;;;;;;6253623;22;20023;-77
2022/10/11 11:30:57;;;;;;;5.07;1.15;;;20.50;55.10;;;;;;6258722;22;20599;-76
2022/10/11 11:33:56;;;;;;;6.05;1.40;;;20.50;55.20;;;;;;6260678;22;20094;-76
2022/10/11 11:36:40;;;;;;;6.45;1.60;;;20.50;55.20;;;;;;6232568;22;20110;-77
2022/10/11 11:39:15;;;;;;;5.75;1.50;;;20.50;55.10;;;;;;6258963;22;20020;-76
2022/10/11 11:41:55;;;;;;;5.05;1.38;;;20.50;55.30;;;;;;6257679;22;20016;-76
2022/10/11 11:44:29;;;;;;;5.97;1.15;;;20.50;55.20;;;;;;6232698;22;20020;-77
2022/10/11 11:47:09;;;;;;;7.28;1.30;;;20.50;55.20;;;;;;6257348;22;20018;-76
2022/10/11 11:49:38;;;;;;;9.55;1.58;;;20.50;55.20;;;;;;6231515;22;20027;-76
2022/10/11 11:52:06;;;;;;;5.05;1.50;;;20.50;55.20;;;;;;6257478;22;20016;-76
2022/10/11 11:54:41;;;;;;;;;;;20.50;55.20;;;;;;6259331;22;20395;-77
2022/10/11 11:57:14;;;;;;;5.50;1.42;;;20.50;55.20;;;;;;6258660;22;20204;-76
2022/10/11 11:59:46;;;;;;;6.68;1.23;;;20.50;55.30;;;;;;6259831;22;20016;-77
2022/10/11 12:02:34;;;;;;;4.78;1.20;;;20.50;55.20;;;;;;6260058;22;20023;-77
2022/10/11 12:05:00;;;;;;;6.75;1.52;;;20.50;55.20;;;;;;6260747;22;20015;-77
2022/10/11 12:07:27;;;;;;;3.42;1.00;;;20.50;55.20;;;;;;6259684;22;20087;-77
2022/10/11 12:10:22;;;;;;;6.70;1.50;;;20.50;55.10;;;;;;6256516;22;20011;-75
2022/10/11 12:12:48;;;;;;;6.55;1.20;;;20.50;55.10;;;;;;6255721;22;20081;-79
2022/10/11 12:15:25;;;;;;;4.75;1.02;;;20.50;55.30;;;;;;6259519;22;20015;-76
2022/10/11 12:18:14;;;;;;;10.30;1.63;;;20.50;55.40;;;;;;6257470;22;20027;-78
2022/10/11 12:20:41;;;;;;;12.40;1.60;;;20.50;55.40;;;;;;6257787;22;20062;-78
2022/10/11 12:23:44;;;;;;;10.60;1.30;;;20.50;55.50;;;;;;6256176;22;20098;-78
2022/10/11 12:26:38;;;;;;;11.05;1.88;;;20.50;55.50;;;;;;6231480;22;20012;-78
2022/10/11 12:29:04;;;;;;;8.35;1.55;;;20.50;55.50;;;;;;6232289;22;20019;-76
2022/10/11 12:31:33;;;;;;;8.68;1.67;;;20.50;55.60;;;;;;6229755;22;20331;-77
2022/10/11 12:34:33;;;;;;;6.80;1.52;;;20.60;55.70;;;;;;6255480;22;20113;-75
2022/10/11 12:37:19;;;;;;;6.93;1.60;;;20.60;55.50;;;;;;6255458;22;20045;-74
2022/10/11 12:39:56;;;;;;;9.80;1.50;;;20.60;55.40;;;;;;6255186;22;20030;-75
2022/10/11 12:42:33;;;;;;;9.00;1.40;;;20.60;55.20;;;;;;6258033;22;20016;-75
2022/10/11 12:45:11;;;;;;;5.97;1.40;;;20.60;55.20;;;;;;6258605;22;20022;-75
2022/10/11 12:47:59;;;;;;;7.75;1.38;;;20.60;55.00;;;;;;6257972;22;20406;-74
2022/10/11 12:50:38;;;;;;;5.50;1.48;;;20.60;54.80;;;;;;6233805;22;20024;-73
2022/10/11 12:53:30;;;;;;;7.72;1.52;;;20.60;54.90;;;;;;6255856;22;20029;-75
2022/10/11 12:56:05;;;;;;;7.60;1.65;;;20.60;54.80;;;;;;6252496;22;20020;-77
2022/10/11 12:58:45;;;;;;;6.60;1.45;;;20.60;54.80;;;;;;6258128;22;20078;-76
2022/10/11 13:01:21;;;;;;;6.10;1.40;;;20.50;54.70;;;;;;6258116;22;20047;-74
2022/10/11 13:04:06;;;;;;;3.40;1.08;;;20.60;55.50;;;;;;6231702;22;20122;-75
2022/10/11 13:06:49;;;;;;;6.00;1.20;;;20.60;54.60;;;;;;6257483;22;20043;-74
2022/10/11 13:09:38;;;;;;;3.33;1.08;;;20.60;54.60;;;;;;6236125;22;20019;-74
2022/10/11 13:12:08;;;;;;;9.98;1.60;;;20.60;54.60;;;;;;6235889;22;20539;-76
2022/10/11 13:14:59;;;;;;;5.28;1.50;;;20.60;54.80;;;;;;6260734;22;20015;-73